Time;durP1;ratioP1;P1;durP2;ratioP2;P2;SDS_P1;SDS_P2;PMS_P1;PMS_P2;Temp;Humidity;BMP_temperature;BMP_pressure;BME280_temperature;BME280_humidity;BME280_pressure;Samples;Min_cycle;Max_cycle;Signal;HPM_P1;HPM_P2
2022/02/16 00:02:24;;;;;;;41.17;20.75;;;;;;;3.30;100.00;97882.16;5092599;28;20032;-74
2022/02/16 00:04:49;;;;;;;31.02;20.33;;;;;;;3.17;100.00;97877.94;5093446;28;20172;-75
2022/02/16 00:07:15;;;;;;;33.65;20.58;;;;;;;3.09;100.00;97859.47;5094413;28;20039;-75
2022/02/16 00:09:40;;;;;;;27.33;19.95;;;;;;;3.14;100.00;97881.97;5094553;28;20109;-74
2022/02/16 00:12:07;;;;;;;35.47;22.02;;;;;;;3.00;100.00;97878.00;5093049;28;20059;-76
2022/02/16 00:14:32;;;;;;;37.08;21.65;;;;;;;2.97;100.00;97875.78;5094406;28;20070;-75
2022/02/16 00:16:58;;;;;;;32.72;21.17;;;;;;;2.90;100.00;97877.03;5093127;28;20129;-75
2022/02/16 00:19:23;;;;;;;36.72;19.63;;;;;;;2.78;100.00;97879.81;5095219;28;20035;-76
2022/02/16 00:21:49;;;;;;;31.77;20.70;;;;;;;2.63;100.00;97874.19;5093058;28;20028;-75
2022/02/16 00:24:15;;;;;;;34.28;20.15;;;;;;;2.72;100.00;97888.91;5093263;28;20020;-76
2022/02/16 00:26:40;;;;;;;32.38;20.42;;;;;;;2.78;100.00;97885.22;5094826;28;20030;-75
2022/02/16 00:29:06;;;;;;;35.28;20.17;;;;;;;2.79;100.00;97892.25;5096765;28;20016;-76
2022/02/16 00:31:31;;;;;;;36.35;21.23;;;;;;;2.84;100.00;97897.75;5094759;28;20035;-78
2022/02/16 00:33:57;;;;;;;34.92;20.85;;;;;;;2.96;100.00;97898.47;5093959;28;20016;-76
2022/02/16 00:36:22;;;;;;;33.05;20.52;;;;;;;3.05;100.00;97902.38;5094241;28;20089;-75
2022/02/16 00:38:48;;;;;;;33.80;20.13;;;;;;;3.07;100.00;97907.53;5092752;28;20016;-75
2022/02/16 00:41:13;;;;;;;30.00;18.98;;;;;;;3.07;100.00;97911.03;5093943;28;20036;-74
2022/02/16 00:43:39;;;;;;;30.48;20.15;;;;;;;3.14;100.00;97906.28;5094169;28;20108;-75
2022/02/16 00:46:04;;;;;;;33.08;19.38;;;;;;;3.28;100.00;97914.84;5094132;28;20020;-75
2022/02/16 00:48:30;;;;;;;31.38;19.63;;;;;;;3.32;100.00;97907.06;5094148;28;20027;-75
2022/02/16 00:50:55;;;;;;;31.52;20.48;;;;;;;3.37;100.00;97912.53;5095039;28;20031;-78
2022/02/16 00:53:21;;;;;;;33.63;21.02;;;;;;;3.39;100.00;97913.09;5094735;28;20021;-78
2022/02/16 00:55:47;;;;;;;26.70;18.73;;;;;;;3.57;100.00;97916.31;5094310;28;20101;-74
2022/02/16 00:58:13;;;;;;;25.67;17.55;;;;;;;3.54;100.00;97911.41;5094157;28;20040;-75
2022/02/16 01:00:39;;;;;;;26.65;15.25;;;;;;;3.42;100.00;97912.59;5094017;28;20036;-75
2022/02/16 01:03:04;;;;;;;26.90;15.02;;;;;;;3.43;100.00;97920.47;5092539;28;20051;-75
2022/02/16 01:05:30;;;;;;;23.63;14.30;;;;;;;3.53;100.00;97914.38;5093685;28;20025;-75
2022/02/16 01:07:56;;;;;;;27.83;15.43;;;;;;;3.58;100.00;97927.94;5094130;28;20031;-75
2022/02/16 01:10:23;;;;;;;23.98;14.43;;;;;;;3.66;100.00;97924.81;5094194;28;20377;-76
2022/02/16 01:12:49;;;;;;;22.15;13.70;;;;;;;3.69;100.00;97910.78;5092927;28;20115;-83
2022/02/16 01:15:16;;;;;;;23.17;14.60;;;;;;;3.71;100.00;97914.88;5093569;28;20615;-75
2022/02/16 01:17:42;;;;;;;22.70;14.38;;;;;;;3.69;100.00;97899.97;5093215;28;20115;-75
2022/02/16 01:20:09;;;;;;;24.13;13.73;;;;;;;3.71;100.00;97903.22;5096309;28;20534;-75
2022/02/16 01:22:36;;;;;;;19.95;13.18;;;;;;;3.72;100.00;97902.16;5095802;28;20028;-78
2022/02/16 01:25:01;;;;;;;21.50;13.35;;;;;;;3.87;100.00;97905.03;5095234;28;20096;-75
2022/02/16 01:27:27;;;;;;;20.63;13.05;;;;;;;3.85;100.00;97896.38;5096118;28;20050;-76
2022/02/16 01:29:52;;;;;;;19.52;12.55;;;;;;;3.87;100.00;97885.28;5097452;28;20024;-76
2022/02/16 01:32:18;;;;;;;20.65;13.07;;;;;;;3.79;100.00;97898.19;5096793;28;20055;-76
2022/02/16 01:34:43;;;;;;;20.67;12.98;;;;;;;3.76;100.00;97897.88;5093318;28;20028;-76
2022/02/16 01:37:09;;;;;;;23.90;13.45;;;;;;;3.81;100.00;97900.66;5095092;28;20086;-77
2022/02/16 01:39:35;;;;;;;20.30;13.20;;;;;;;3.75;100.00;97891.66;5094951;28;20048;-74
2022/02/16 01:42:01;;;;;;;21.58;13.57;;;;;;;3.83;100.00;97892.25;5099053;28;20093;-78
2022/02/16 01:44:27;;;;;;;22.25;12.88;;;;;;;3.75;100.00;97888.13;5096371;28;20038;-75
2022/02/16 01:47:00;;;;;;;20.95;13.13;;;;;;;3.75;100.00;97886.25;5093453;28;20024;-74
2022/02/16 01:49:25;;;;;;;18.02;11.38;;;;;;;3.74;100.00;97878.38;5092662;28;20094;-75
2022/02/16 01:51:51;;;;;;;20.15;10.63;;;;;;;3.67;100.00;97878.56;5092897;28;20482;-74
2022/02/16 01:54:16;;;;;;;17.45;11.57;;;;;;;3.67;100.00;97881.28;5091834;28;20012;-74
2022/02/16 01:56:46;;;;;;;17.83;11.38;;;;;;;3.77;100.00;97885.97;5092406;28;20024;-75
2022/02/16 01:59:15;;;;;;;18.65;11.13;;;;;;;3.67;100.00;97881.28;5092821;28;20028;-75
2022/02/16 02:01:41;;;;;;;18.65;11.60;;;;;;;3.72;100.00;97875.94;5093927;28;20050;-74
2022/02/16 02:04:07;;;;;;;17.17;10.63;;;;;;;3.74;100.00;97871.09;5093127;28;20024;-76
2022/02/16 02:06:32;;;;;;;21.08;11.75;;;;;;;3.78;100.00;97884.94;5093437;28;20028;-74
2022/02/16 02:08:57;;;;;;;19.58;12.35;;;;;;;3.76;100.00;97884.34;5094123;28;20465;-74
2022/02/16 02:11:23;;;;;;;18.83;12.07;;;;;;;3.74;100.00;97886.50;5075764;28;20024;-75
2022/02/16 02:13:56;;;;;;;20.50;12.07;;;;;;;3.76;100.00;97887.03;5094400;28;20698;-75
2022/02/16 02:16:22;;;;;;;20.42;12.05;;;;;;;3.83;100.00;97893.09;5092232;28;20096;-75
2022/02/16 02:18:47;;;;;;;18.75;11.73;;;;;;;3.78;100.00;97887.63;5095134;28;20052;-75
2022/02/16 02:21:13;;;;;;;17.30;11.90;;;;;;;3.78;100.00;97880.34;5090980;28;20122;-76
2022/02/16 02:23:38;;;;;;;17.73;12.10;;;;;;;3.80;100.00;97888.19;5091895;28;20040;-75
2022/02/16 02:26:03;;;;;;;17.75;11.45;;;;;;;3.90;100.00;97893.72;5094591;28;20028;-74
2022/02/16 02:28:29;;;;;;;20.55;12.20;;;;;;;3.92;100.00;97886.16;5092323;28;20056;-78
2022/02/16 02:30:55;;;;;;;17.92;11.70;;;;;;;3.87;100.00;97894.22;5092094;28;20040;-75
2022/02/16 02:33:21;;;;;;;21.23;12.60;;;;;;;3.79;100.00;97881.13;5092658;28;20024;-75
2022/02/16 02:35:47;;;;;;;20.73;12.52;;;;;;;3.84;100.00;97883.09;5091844;28;20028;-75
2022/02/16 02:38:13;;;;;;;20.88;13.15;;;;;;;3.75;100.00;97880.84;5093067;28;20032;-80
2022/02/16 02:40:38;;;;;;;21.90;13.38;;;;;;;3.74;100.00;97884.59;5093424;28;20093;-75
2022/02/16 02:43:04;;;;;;;20.15;12.88;;;;;;;3.74;100.00;97878.38;5092829;28;20046;-74
2022/02/16 02:45:29;;;;;;;20.70;13.27;;;;;;;3.69;100.00;97881.03;5091864;28;20119;-75
2022/02/16 02:47:55;;;;;;;22.55;13.45;;;;;;;3.72;100.00;97875.94;5093161;28;20039;-75
2022/02/16 02:50:20;;;;;;;21.88;13.70;;;;;;;3.72;100.00;97867.84;5091528;28;20065;-78
2022/02/16 02:52:46;;;;;;;22.38;13.75;;;;;;;3.81;100.00;97883.59;5093093;28;20115;-78
2022/02/16 02:55:13;;;;;;;24.25;14.30;;;;;;;3.75;100.00;97885.44;5092126;28;20122;-78
2022/02/16 02:57:39;;;;;;;22.73;13.73;;;;;;;3.85;100.00;97880.16;5093666;28;20117;-76
2022/02/16 03:00:10;;;;;;;20.30;13.13;;;;;;;3.89;100.00;97880.44;5093488;28;20071;-76
2022/02/16 03:02:38;;;;;;;20.90;13.95;;;;;;;3.86;100.00;97870.94;5090124;28;20052;-75
2022/02/16 03:05:04;;;;;;;21.30;12.93;;;;;;;3.87;100.00;97867.16;5091398;28;20024;-75
2022/02/16 03:07:30;;;;;;;21.42;13.75;;;;;;;3.81;100.00;97873.59;5090256;28;20024;-75
2022/02/16 03:09:55;;;;;;;22.65;13.98;;;;;;;3.79;100.00;97879.25;5091461;28;20024;-75
2022/02/16 03:12:21;;;;;;;22.05;13.75;;;;;;;3.87;100.00;97878.00;5091644;28;20028;-75
2022/02/16 03:14:46;;;;;;;19.50;12.40;;;;;;;3.88;100.00;97882.34;5092673;28;20051;-75
2022/02/16 03:17:12;;;;;;;19.48;13.10;;;;;;;3.81;100.00;97876.31;5089541;28;20469;-75
2022/02/16 03:19:37;;;;;;;22.50;13.57;;;;;;;3.80;100.00;97877.34;5090090;28;20495;-75
2022/02/16 03:22:03;;;;;;;18.08;12.10;;;;;;;3.89;100.00;97878.53;5090959;28;20024;-75
2022/02/16 03:24:29;;;;;;;23.75;14.30;;;;;;;3.89;100.00;97870.41;5091089;28;20032;-75
2022/02/16 03:26:54;;;;;;;27.52;15.23;;;;;;;3.83;100.00;97876.03;5091014;28;20031;-74
2022/02/16 03:29:20;;;;;;;35.20;16.83;;;;;;;3.76;100.00;97876.22;5089585;28;20436;-76
2022/02/16 03:31:47;;;;;;;28.02;15.50;;;;;;;3.66;100.00;97884.25;5090511;28;20453;-75
2022/02/16 03:34:12;;;;;;;31.55;18.27;;;;;;;3.54;100.00;97872.75;5090704;28;20059;-74
2022/02/16 03:36:38;;;;;;;20.05;11.82;;;;;;;3.54;100.00;97880.88;5083763;28;20044;-74
2022/02/16 03:39:03;;;;;;;18.90;10.98;;;;;;;3.58;100.00;97884.69;5079850;28;20474;-74
2022/02/16 03:41:29;;;;;;;17.05;10.55;;;;;;;3.54;100.00;97899.78;5070231;28;20115;-74
2022/02/16 03:43:54;;;;;;;20.63;11.13;;;;;;;3.51;100.00;97900.28;5087434;28;20097;-74
2022/02/16 03:46:19;;;;;;;18.38;11.30;;;;;;;3.55;100.00;97904.94;5089134;28;20499;-74
2022/02/16 03:48:46;;;;;;;27.00;14.15;;;;;;;3.58;100.00;97903.59;5090591;28;20024;-75
2022/02/16 03:51:11;;;;;;;20.20;12.27;;;;;;;3.60;100.00;97899.56;5091222;28;20086;-74
2022/02/16 03:53:37;;;;;;;19.65;11.82;;;;;;;3.51;100.00;97897.59;5091737;28;20024;-74
2022/02/16 03:56:02;;;;;;;22.90;12.38;;;;;;;3.52;100.00;97894.63;5079286;28;20134;-77
2022/02/16 03:58:28;;;;;;;20.58;12.23;;;;;;;3.51;100.00;97892.19;5070651;28;20079;-74
2022/02/16 04:00:53;;;;;;;19.65;11.23;;;;;;;3.56;100.00;97894.94;5070305;28;20032;-74
2022/02/16 04:03:18;;;;;;;19.45;11.52;;;;;;;3.49;100.00;97892.41;5070082;28;20060;-74
2022/02/16 04:05:44;;;;;;;17.75;10.38;;;;;;;3.61;100.00;97901.22;5070390;28;20434;-74
2022/02/16 04:08:10;;;;;;;13.95;8.77;;;;;;;3.57;100.00;97899.28;5071164;28;20020;-75
2022/02/16 04:10:35;;;;;;;13.57;8.35;;;;;;;3.54;100.00;97899.78;5071361;28;20032;-74
2022/02/16 04:13:01;;;;;;;14.82;9.13;;;;;;;3.61;100.00;97906.63;5070110;28;20032;-74
2022/02/16 04:15:26;;;;;;;14.18;9.00;;;;;;;3.53;100.00;97915.19;5070523;28;20024;-74
2022/02/16 04:17:52;;;;;;;14.85;9.43;;;;;;;3.47;100.00;97904.56;5069963;28;20029;-74
2022/02/16 04:20:18;;;;;;;14.50;9.20;;;;;;;3.48;100.00;97900.75;5070180;28;20035;-74
2022/02/16 04:22:45;;;;;;;17.20;9.68;;;;;;;3.45;100.00;97902.09;5069973;28;20025;-74
2022/02/16 04:25:11;;;;;;;14.30;8.55;;;;;;;3.50;100.00;97901.34;5069877;28;20020;-74
2022/02/16 04:27:36;;;;;;;12.68;8.27;;;;;;;3.57;100.00;97902.00;5070212;28;20501;-74
2022/02/16 04:30:04;;;;;;;13.55;8.43;;;;;;;3.50;100.00;97912.16;5069822;28;20028;-74
2022/02/16 04:32:30;;;;;;;13.38;8.75;;;;;;;3.50;100.00;97895.94;5085120;28;20123;-75
2022/02/16 04:34:55;;;;;;;12.35;7.38;;;;;;;3.56;100.00;97900.34;5088462;28;20166;-74
2022/02/16 04:37:21;;;;;;;11.48;7.35;;;;;;;3.54;100.00;97895.16;5089971;28;20161;-74
2022/02/16 04:39:46;;;;;;;13.40;8.07;;;;;;;3.58;100.00;97903.59;5089909;28;20020;-74
2022/02/16 04:42:11;;;;;;;14.35;8.45;;;;;;;3.62;100.00;97902.03;5089979;28;20039;-74
2022/02/16 04:44:37;;;;;;;12.68;8.35;;;;;;;3.63;100.00;97900.97;5090236;28;20020;-74
2022/02/16 04:47:03;;;;;;;14.73;8.63;;;;;;;3.53;100.00;97892.75;5091128;28;20132;-75
2022/02/16 04:49:28;;;;;;;14.63;9.18;;;;;;;3.55;100.00;97901.41;5093725;28;20031;-75
2022/02/16 04:51:53;;;;;;;14.98;9.23;;;;;;;3.64;100.00;97892.59;5093808;28;20392;-74
2022/02/16 04:54:19;;;;;;;16.58;10.00;;;;;;;3.58;100.00;97892.78;5093198;28;20077;-74
2022/02/16 04:56:44;;;;;;;13.00;8.68;;;;;;;3.64;100.00;97889.06;5093186;28;20115;-74
2022/02/16 04:59:10;;;;;;;13.77;9.40;;;;;;;3.64;100.00;97887.19;5093277;28;20168;-74
2022/02/16 05:01:35;;;;;;;16.08;10.27;;;;;;;3.70;100.00;97894.28;5093284;28;20094;-74
2022/02/16 05:04:03;;;;;;;14.45;10.05;;;;;;;3.67;100.00;97900.22;5095005;28;20027;-77
2022/02/16 05:06:29;;;;;;;16.30;10.55;;;;;;;3.70;100.00;97904.28;5094287;28;20019;-74
2022/02/16 05:08:55;;;;;;;16.65;9.77;;;;;;;3.71;100.00;97905.94;5093156;28;20032;-74
2022/02/16 05:11:20;;;;;;;18.60;10.57;;;;;;;3.66;100.00;97908.59;5092882;28;20023;-74
2022/02/16 05:13:45;;;;;;;17.48;10.57;;;;;;;3.66;100.00;97908.59;5093222;28;20036;-74
2022/02/16 05:16:11;;;;;;;16.05;10.32;;;;;;;3.66;100.00;97916.69;5092078;28;20032;-74
2022/02/16 05:18:36;;;;;;;17.92;11.52;;;;;;;3.60;100.00;97915.78;5093531;28;20012;-74
2022/02/16 05:21:02;;;;;;;17.33;11.20;;;;;;;3.60;100.00;97912.31;5093304;28;20111;-74
2022/02/16 05:23:28;;;;;;;17.42;11.32;;;;;;;3.60;100.00;97915.78;5091652;28;20381;-75
2022/02/16 05:25:54;;;;;;;20.52;12.15;;;;;;;3.65;100.00;97924.00;5092965;28;20032;-74
2022/02/16 05:28:20;;;;;;;21.77;12.85;;;;;;;3.68;100.00;97909.97;5092899;28;20362;-74
2022/02/16 05:30:46;;;;;;;21.88;12.52;;;;;;;3.59;100.00;97929.59;5090695;28;20024;-74
2022/02/16 05:33:11;;;;;;;21.63;12.32;;;;;;;3.64;100.00;97933.16;5072591;28;20436;-74
2022/02/16 05:35:37;;;;;;;17.83;11.48;;;;;;;3.60;100.00;97915.78;5090512;28;20473;-74
2022/02/16 05:38:02;;;;;;;16.70;10.90;;;;;;;3.66;100.00;97928.34;5091607;28;20028;-75
2022/02/16 05:40:28;;;;;;;18.52;11.15;;;;;;;3.74;100.00;97932.47;5091330;28;20055;-75
2022/02/16 05:42:54;;;;;;;16.58;11.05;;;;;;;3.63;100.00;97928.03;5092378;28;20397;-75
2022/02/16 05:45:20;;;;;;;22.85;12.32;;;;;;;3.55;100.00;97931.16;5090685;28;20473;-74
2022/02/16 05:47:45;;;;;;;17.80;11.27;;;;;;;3.59;100.00;97926.88;5092448;28;20028;-78
2022/02/16 05:50:11;;;;;;;19.30;11.68;;;;;;;3.55;100.00;97923.84;5092366;28;20024;-76
2022/02/16 05:52:36;;;;;;;19.77;12.25;;;;;;;3.61;100.00;97928.25;5092525;28;20042;-73
2022/02/16 05:55:03;;;;;;;20.08;11.80;;;;;;;3.58;100.00;97927.94;5091218;28;20016;-73
2022/02/16 05:57:30;;;;;;;21.27;11.82;;;;;;;3.52;100.00;97927.06;5092457;28;20056;-73
2022/02/16 05:59:56;;;;;;;21.20;11.85;;;;;;;3.49;100.00;97924.03;5092691;28;20024;-74
2022/02/16 06:02:22;;;;;;;21.10;13.15;;;;;;;3.40;100.00;97925.53;5091091;28;20043;-74
2022/02/16 06:04:48;;;;;;;20.42;12.00;;;;;;;3.41;100.00;97936.13;5091006;28;20032;-75
2022/02/16 06:07:13;;;;;;;21.95;12.95;;;;;;;3.34;100.00;97921.97;5091096;28;20476;-75
2022/02/16 06:09:38;;;;;;;21.48;12.57;;;;;;;3.54;100.00;97935.72;5097065;28;20449;-75
2022/02/16 06:12:04;;;;;;;23.65;13.93;;;;;;;3.57;100.00;97942.53;5092267;28;20061;-73
2022/02/16 06:14:30;;;;;;;23.80;13.23;;;;;;;3.49;100.00;97945.66;5091215;28;20012;-73
2022/02/16 06:16:55;;;;;;;18.75;11.23;;;;;;;3.40;100.00;97956.09;5090974;28;20035;-74
2022/02/16 06:19:20;;;;;;;23.40;11.13;;;;;;;3.35;100.00;97939.81;5090382;28;20016;-73
2022/02/16 06:21:46;;;;;;;22.85;12.95;;;;;;;3.38;100.00;97952.84;5091673;28;20036;-74
2022/02/16 06:24:15;;;;;;;20.05;10.95;;;;;;;3.32;100.00;97961.13;5091306;28;20677;-73
2022/02/16 06:26:42;;;;;;;18.02;10.88;;;;;;;3.16;100.00;97963.59;5091629;28;20039;-73
2022/02/16 06:29:08;;;;;;;19.95;10.73;;;;;;;3.04;100.00;97953.94;5086099;28;20016;-71
2022/02/16 06:31:34;;;;;;;24.38;12.48;;;;;;;3.16;100.00;97968.97;5090861;28;20469;-73
2022/02/16 06:33:59;;;;;;;23.65;12.52;;;;;;;3.09;100.00;97962.97;5090981;28;20036;-75
2022/02/16 06:36:25;;;;;;;22.77;12.35;;;;;;;3.15;100.00;97959.25;5092298;28;20370;-76
2022/02/16 06:38:50;;;;;;;23.65;12.43;;;;;;;3.24;100.00;97970.47;5096481;28;20039;-73
2022/02/16 06:41:16;;;;;;;25.10;12.95;;;;;;;3.26;100.00;97971.03;5095753;28;20024;-73
2022/02/16 06:43:42;;;;;;;26.23;13.27;;;;;;;3.38;100.00;97968.25;5095034;28;20044;-72
2022/02/16 06:46:07;;;;;;;25.45;12.65;;;;;;;3.38;100.00;97970.94;5090159;28;20072;-73
2022/02/16 06:48:33;;;;;;;26.88;13.23;;;;;;;3.39;100.00;97980.66;5090045;28;20031;-73
2022/02/16 06:50:58;;;;;;;31.00;13.65;;;;;;;3.44;100.00;97983.47;5091714;28;20021;-73
2022/02/16 06:53:24;;;;;;;29.40;14.13;;;;;;;3.50;100.00;97986.00;5091165;28;20032;-73
2022/02/16 06:55:50;;;;;;;33.42;14.85;;;;;;;3.68;100.00;97987.56;5093175;28;20024;-73
2022/02/16 06:58:16;;;;;;;29.27;14.80;;;;;;;3.65;100.00;97979.97;5090956;28;20052;-70
2022/02/16 07:00:42;;;;;;;28.60;13.10;;;;;;;3.77;100.00;97981.47;5089126;28;20032;-71
2022/02/16 07:03:07;;;;;;;31.77;14.18;;;;;;;3.83;100.00;97990.47;5090416;28;20165;-71
2022/02/16 07:05:33;;;;;;;33.17;15.93;;;;;;;3.86;100.00;97983.72;5090434;28;20093;-71
2022/02/16 07:07:58;;;;;;;29.73;13.70;;;;;;;3.94;100.00;97986.84;5090674;28;20024;-72
2022/02/16 07:10:25;;;;;;;31.58;13.82;;;;;;;3.93;100.00;97984.38;5090528;28;20497;-72
2022/02/16 07:12:51;;;;;;;29.17;14.27;;;;;;;3.99;100.00;97992.28;5090558;28;20069;-73
2022/02/16 07:15:16;;;;;;;33.00;14.65;;;;;;;4.00;100.00;97996.66;5090811;28;20062;-71
2022/02/16 07:17:42;;;;;;;33.95;14.27;;;;;;;4.10;100.00;98004.06;5090780;28;20032;-74
2022/02/16 07:20:13;;;;;;;32.05;14.75;;;;;;;4.17;100.00;98002.78;5093982;28;20060;-75
2022/02/16 07:22:46;;;;;;;34.15;15.50;;;;;;;4.21;100.00;98003.09;5093195;28;20544;-75
2022/02/16 07:25:13;;;;;;;34.85;16.00;;;;;;;4.20;100.00;97996.88;5094065;28;20028;-74
2022/02/16 07:27:39;;;;;;;38.42;15.68;;;;;;;4.23;100.00;98006.38;5092549;28;20020;-73
2022/02/16 07:30:07;;;;;;;39.53;16.70;;;;;;;4.31;100.00;98001.34;5090771;28;20034;-73
2022/02/16 07:32:32;;;;;;;59.38;20.63;;;;;;;4.38;100.00;98003.03;5090540;28;20032;-73
2022/02/16 07:34:57;;;;;;;38.47;18.40;;;;;;;4.38;100.00;98005.75;5090461;28;20024;-73
2022/02/16 07:37:23;;;;;;;45.95;21.98;;;;;;;4.37;100.00;98002.22;5072397;28;20380;-73
2022/02/16 07:39:48;;;;;;;40.63;18.92;;;;;;;4.39;100.00;98012.78;5090012;28;20464;-73
2022/02/16 07:42:14;;;;;;;39.40;17.65;;;;;;;4.43;100.00;98012.03;5090390;28;20028;-76
2022/02/16 07:44:40;;;;;;;36.97;17.38;;;;;;;4.40;100.00;98011.72;5088073;28;20028;-73
2022/02/16 07:47:09;;;;;;;26.85;13.82;;;;;;;4.49;100.00;98021.84;5088690;28;20024;-73
2022/02/16 07:49:36;;;;;;;26.60;13.98;;;;;;;4.40;100.00;98017.94;5091380;28;20028;-76
2022/02/16 07:52:03;;;;;;;26.30;13.65;;;;;;;4.32;100.00;98027.31;5091810;28;20069;-74
2022/02/16 07:54:29;;;;;;;28.40;13.73;;;;;;;4.26;100.00;98027.53;5090478;28;20028;-73
2022/02/16 07:56:54;;;;;;;26.42;12.57;;;;;;;4.24;100.00;98030.50;5090442;28;20030;-74
2022/02/16 07:59:19;;;;;;;27.08;12.77;;;;;;;4.31;100.00;98027.59;5090374;28;20036;-74
2022/02/16 08:01:45;;;;;;;30.80;14.02;;;;;;;4.30;100.00;98032.19;5090413;28;20378;-73
2022/02/16 08:04:16;;;;;;;27.05;12.25;;;;;;;4.39;100.00;98026.31;5090371;28;20024;-73
2022/02/16 08:06:44;;;;;;;25.85;11.23;;;;;;;4.48;100.00;98032.94;5090534;28;20417;-73
2022/02/16 08:09:10;;;;;;;23.25;10.68;;;;;;;4.49;100.00;98031.84;5090390;28;20045;-74
2022/02/16 08:11:39;;;;;;;24.55;12.68;;;;;;;4.37;100.00;98033.88;5090100;28;20046;-73
2022/02/16 08:14:05;;;;;;;22.48;12.57;;;;;;;4.45;100.00;98036.16;5090027;28;20020;-73
2022/02/16 08:16:31;;;;;;;25.73;12.80;;;;;;;4.41;100.00;98035.84;5090440;28;20032;-73
2022/02/16 08:18:56;;;;;;;25.25;12.30;;;;;;;4.50;100.00;98037.00;5091367;28;20059;-74
2022/02/16 08:21:22;;;;;;;19.45;10.40;;;;;;;4.36;100.00;98037.66;5095795;28;20036;-74
2022/02/16 08:23:47;;;;;;;25.00;11.55;;;;;;;4.18;100.00;98026.09;5096848;28;20131;-74
2022/02/16 08:26:12;;;;;;;27.02;12.77;;;;;;;4.28;100.00;98028.91;5094582;28;20511;-74
2022/02/16 08:28:38;;;;;;;20.75;11.57;;;;;;;4.35;100.00;98027.91;5092867;28;20043;-73
2022/02/16 08:31:03;;;;;;;20.90;9.95;;;;;;;4.40;100.00;98030.66;5094054;28;20099;-73
2022/02/16 08:33:29;;;;;;;20.33;10.63;;;;;;;4.43;100.00;98033.69;5094022;28;20072;-74
2022/02/16 08:35:55;;;;;;;30.15;14.05;;;;;;;4.31;100.00;98033.00;5092703;28;20384;-74
2022/02/16 08:38:20;;;;;;;28.90;13.40;;;;;;;4.39;100.00;98035.25;5092906;28;20032;-73
2022/02/16 08:40:46;;;;;;;24.13;11.93;;;;;;;4.43;100.00;98030.16;5093920;28;20016;-73
2022/02/16 08:43:11;;;;;;;24.42;12.50;;;;;;;4.51;100.00;98029.72;5094193;28;20023;-74
2022/02/16 08:45:37;;;;;;;24.70;12.48;;;;;;;4.32;100.00;98031.94;5097028;28;20038;-74
2022/02/16 08:48:02;;;;;;;24.25;11.60;;;;;;;4.33;100.00;98014.59;5094441;28;20056;-73
2022/02/16 08:50:28;;;;;;;25.40;11.90;;;;;;;4.50;100.00;98023.47;5093911;28;20107;-73
2022/02/16 08:52:53;;;;;;;21.20;11.20;;;;;;;4.33;100.00;98025.44;5093875;28;20032;-74
2022/02/16 08:55:18;;;;;;;24.35;11.32;;;;;;;4.37;100.00;98023.03;5093576;28;20058;-74
2022/02/16 08:57:44;;;;;;;25.42;12.50;;;;;;;4.58;100.00;98019.47;5093379;28;20044;-73
2022/02/16 09:00:10;;;;;;;36.25;16.77;;;;;;;4.55;100.00;98015.41;5093343;28;20032;-73
2022/02/16 09:02:36;;;;;;;32.95;15.55;;;;;;;4.48;100.00;98014.78;5093565;28;20493;-74
2022/02/16 09:05:03;;;;;;;22.17;11.55;;;;;;;4.50;100.00;98017.25;5093592;28;20031;-73
2022/02/16 09:07:28;;;;;;;31.63;14.52;;;;;;;4.40;100.00;98006.28;5093484;28;20489;-73
2022/02/16 09:09:55;;;;;;;25.00;12.20;;;;;;;4.39;100.00;98008.19;5091879;28;20042;-73
2022/02/16 09:12:22;;;;;;;23.40;11.85;;;;;;;4.39;100.00;98007.34;5093492;28;20020;-77
2022/02/16 09:14:48;;;;;;;25.92;13.27;;;;;;;4.36;100.00;97999.75;5090449;28;20040;-73
2022/02/16 09:17:13;;;;;;;24.35;12.25;;;;;;;4.55;100.00;97992.91;5092313;28;20016;-73
2022/02/16 09:19:39;;;;;;;30.98;14.05;;;;;;;4.67;100.00;97996.28;5078803;28;20358;-73
2022/02/16 09:22:05;;;;;;;26.40;13.35;;;;;;;4.65;100.00;97995.72;5085463;28;20120;-73
2022/02/16 09:24:31;;;;;;;26.63;13.35;;;;;;;4.41;100.00;97999.81;5086118;28;20077;-73
2022/02/16 09:26:57;;;;;;;31.55;14.60;;;;;;;4.33;100.00;97996.47;5090081;28;20016;-75
2022/02/16 09:29:23;;;;;;;28.58;14.77;;;;;;;4.43;100.00;97995.78;5091910;28;20464;-73
2022/02/16 09:31:51;;;;;;;28.63;13.95;;;;;;;4.47;100.00;97998.78;5091875;28;20047;-73
2022/02/16 09:34:16;;;;;;;32.13;14.10;;;;;;;4.48;100.00;97992.31;5089164;28;20027;-74
2022/02/16 09:36:42;;;;;;;29.88;14.00;;;;;;;4.70;100.00;97998.47;5090526;28;20094;-73
2022/02/16 09:39:08;;;;;;;27.30;13.32;;;;;;;4.90;100.00;98005.97;5087841;28;20016;-73
2022/02/16 09:41:33;;;;;;;30.73;14.45;;;;;;;4.87;100.00;97985.63;5092855;28;20389;-74
2022/02/16 09:43:59;;;;;;;26.35;13.18;;;;;;;4.82;100.00;97982.88;5089445;28;20075;-74
2022/02/16 09:46:25;;;;;;;27.00;13.48;;;;;;;4.92;100.00;97996.50;5088370;28;20020;-73
2022/02/16 09:48:51;;;;;;;26.10;13.55;;;;;;;4.93;100.00;98000.84;5091493;28;20039;-74
2022/02/16 09:51:18;;;;;;;30.08;13.27;;;;;;;4.90;100.00;97985.13;5103844;28;20374;-73
2022/02/16 09:53:44;;;;;;;29.27;14.45;;;;;;;4.69;100.00;97997.66;5089513;28;20057;-73
2022/02/16 09:56:10;;;;;;;28.50;13.77;;;;;;;4.74;100.00;97999.59;5091341;28;20023;-74
2022/02/16 09:58:35;;;;;;;29.48;14.77;;;;;;;4.68;100.00;97997.91;5088681;28;20040;-73
2022/02/16 10:01:05;;;;;;;30.45;15.35;;;;;;;4.64;100.00;97996.78;5091401;28;20024;-73
2022/02/16 10:03:31;;;;;;;26.40;14.00;;;;;;;4.56;100.00;97991.84;5091006;28;20039;-74
2022/02/16 10:05:56;;;;;;;28.52;14.57;;;;;;;4.72;100.00;97988.22;5090952;28;20028;-74
2022/02/16 10:08:44;;;;;;;26.45;13.55;;;;;;;4.99;100.00;97980.84;5090004;28;20016;-73
2022/02/16 10:11:12;;;;;;;24.15;13.48;;;;;;;5.02;100.00;97976.81;5090486;28;20047;-74
2022/02/16 10:13:38;;;;;;;30.70;14.35;;;;;;;4.97;100.00;97980.31;5090653;28;20465;-74
2022/02/16 10:16:04;;;;;;;27.08;13.77;;;;;;;4.83;100.00;97965.53;5091245;28;20070;-75
2022/02/16 10:18:30;;;;;;;32.45;14.75;;;;;;;4.95;100.00;97966.16;5088334;28;20504;-74
2022/02/16 10:21:07;;;;;;;27.70;14.13;;;;;;;5.04;100.00;97966.53;5087345;28;20495;-75
2022/02/16 10:23:44;;;;;;;35.53;16.50;;;;;;;5.24;100.00;97964.78;5085157;28;20032;-73
2022/02/16 10:26:10;;;;;;;29.08;15.77;;;;;;;5.35;100.00;97961.06;5087659;28;20111;-73
2022/02/16 10:28:41;;;;;;;33.33;17.02;;;;;;;5.44;100.00;97957.84;5090026;28;20458;-74
2022/02/16 10:31:07;;;;;;;29.73;14.95;;;;;;;5.57;100.00;97946.53;5090653;28;20489;-74
2022/02/16 10:33:36;;;;;;;32.03;17.90;;;;;;;5.42;100.00;97946.47;5089221;28;20024;-74
2022/02/16 10:36:08;;;;;;;29.83;17.10;;;;;;;5.55;100.00;97945.97;5086751;28;20056;-74
2022/02/16 10:39:00;;;;;;;30.48;16.80;;;;;;;5.17;100.00;97952.53;5092411;28;20158;-74
2022/02/16 10:41:45;;;;;;;31.45;16.65;;;;;;;5.44;100.00;97947.81;5088030;28;20051;-74
2022/02/16 10:44:31;;;;;;;30.15;15.88;;;;;;;5.47;100.00;97949.19;5088893;28;20075;-74
2022/02/16 10:46:59;;;;;;;;;;;;;;;5.27;100.00;97947.16;5088833;28;20031;-74
2022/02/16 10:49:27;;;;;;;29.08;16.75;;;;;;;5.45;100.00;97943.22;5090197;28;19947;-75
2022/02/16 10:52:03;;;;;;;32.08;17.75;;;;;;;5.60;100.00;97935.16;5090742;28;20501;-74
2022/02/16 10:54:29;;;;;;;33.35;17.48;;;;;;;5.82;100.00;97933.09;5088683;28;20030;-74
2022/02/16 10:56:54;;;;;;;30.65;15.73;;;;;;;5.86;100.00;97935.03;5089935;28;20024;-74
2022/02/16 10:59:20;;;;;;;33.08;16.33;;;;;;;5.66;100.00;97939.53;5090140;28;20032;-77
2022/02/16 11:01:45;;;;;;;33.30;15.43;;;;;;;5.64;100.00;97933.56;5082597;28;20032;-75
2022/02/16 11:04:16;;;;;;;33.17;17.88;;;;;;;5.67;100.00;97920.25;5081985;28;20832;-75
2022/02/16 11:06:43;;;;;;;29.15;14.65;;;;;;;5.78;100.00;97926.56;5085008;28;20102;-75
2022/02/16 11:09:20;;;;;;;30.27;16.80;;;;;;;5.70;100.00;97911.59;5089999;28;20051;-75
2022/02/16 11:11:51;;;;;;;31.83;17.75;;;;;;;5.78;100.00;97904.84;5088229;28;20180;-75
2022/02/16 11:14:18;;;;;;;32.92;17.38;;;;;;;5.97;100.00;97908.75;5089910;28;20024;-75
2022/02/16 11:16:48;;;;;;;55.35;42.38;;;;;;;5.85;100.00;97897.28;5089813;28;20121;-74